Time;durP1;ratioP1;P1;durP2;ratioP2;P2;SDS_P1;SDS_P2;PMS_P1;PMS_P2;Temp;Humidity;BMP_temperature;BMP_pressure;BME280_temperature;BME280_humidity;BME280_pressure;Samples;Min_cycle;Max_cycle;Signal;HPM_P1;HPM_P2
2023/05/02 00:01:27;;;;;;;2.67;1.87;;;;;;;;;;5058951;28;20227;-60
2023/05/02 00:03:55;;;;;;;2.20;2.10;;;;;;;;;;5058734;28;20294;-60
2023/05/02 00:06:23;;;;;;;2.17;1.93;;;;;;;;;;5058856;28;20258;-60
2023/05/02 00:08:52;;;;;;;2.97;1.60;;;;;;;;;;5058920;28;20198;-60
2023/05/02 00:11:21;;;;;;;3.37;2.70;;;;;;;;;;5058690;28;20257;-60
2023/05/02 00:13:49;;;;;;;3.60;2.47;;;;;;;;;;5058701;28;20289;-60
2023/05/02 00:16:17;;;;;;;2.87;2.30;;;;;;;;;;5058712;28;20276;-60
2023/05/02 00:18:45;;;;;;;2.43;1.70;;;;;;;;;;5058460;28;20207;-60
2023/05/02 00:21:13;;;;;;;5.37;2.23;;;;;;;;;;5058702;28;20231;-60
2023/05/02 00:23:42;;;;;;;2.83;1.77;;;;;;;;;;5058543;28;20314;-60
2023/05/02 00:26:11;;;;;;;1.57;1.30;;;;;;;;;;5057855;28;20222;-60
2023/05/02 00:28:39;;;;;;;2.87;1.50;;;;;;;;;;5058326;28;20246;-60
2023/05/02 00:31:08;;;;;;;2.00;1.77;;;;;;;;;;5057203;28;20235;-60
2023/05/02 00:33:36;;;;;;;1.63;1.40;;;;;;;;;;5055679;28;20294;-60
2023/05/02 00:36:04;;;;;;;1.60;1.50;;;;;;;;;;5058272;28;20227;-60
2023/05/02 00:38:32;;;;;;;2.20;1.63;;;;;;;;;;5058105;28;20265;-60
2023/05/02 00:41:00;;;;;;;2.70;1.77;;;;;;;;;;5058119;28;20325;-60
2023/05/02 00:43:31;;;;;;;1.83;1.73;;;;;;;;;;5057802;28;20211;-60
2023/05/02 00:45:59;;;;;;;1.57;1.40;;;;;;;;;;5058251;28;20234;-60
2023/05/02 00:48:27;;;;;;;2.00;1.70;;;;;;;;;;5058078;28;20207;-60
2023/05/02 00:50:56;;;;;;;1.50;1.40;;;;;;;;;;5058186;28;20207;-60
2023/05/02 00:53:24;;;;;;;1.60;1.50;;;;;;;;;;5058018;28;20658;-60
2023/05/02 00:55:53;;;;;;;1.50;1.40;;;;;;;;;;5058063;28;20231;-60
2023/05/02 00:58:21;;;;;;;2.20;1.50;;;;;;;;;;5057616;28;20286;-60
2023/05/02 01:00:58;;;;;;;2.43;1.60;;;;;;;;;;5057905;28;20207;-60
2023/05/02 01:03:32;;;;;;;1.83;1.47;;;;;;;;;;5057689;28;20711;-60
2023/05/02 01:06:06;;;;;;;2.30;1.57;;;;;;;;;;5057783;28;20295;-60
2023/05/02 01:08:40;;;;;;;2.37;1.40;;;;;;;;;;5057928;28;20203;-60
2023/05/02 01:11:14;;;;;;;1.70;1.60;;;;;;;;;;5057668;28;20203;-60
2023/05/02 01:13:43;;;;;;;1.97;1.77;;;;;;;;;;5057364;28;20574;-60
2023/05/02 01:16:14;;;;;;;1.67;1.57;;;;;;;;;;5057388;28;20376;-59
2023/05/02 01:18:43;;;;;;;1.80;1.50;;;;;;;;;;5057262;28;20209;-60
2023/05/02 01:21:12;;;;;;;2.70;1.53;;;;;;;;;;5057641;28;20223;-60
2023/05/02 01:23:45;;;;;;;1.70;1.30;;;;;;;;;;5057615;28;20270;-60
2023/05/02 01:26:16;;;;;;;1.80;1.70;;;;;;;;;;5057324;28;20325;-59
2023/05/02 01:28:52;;;;;;;2.67;1.57;;;;;;;;;;5057072;28;20234;-59
2023/05/02 01:31:20;;;;;;;2.60;1.53;;;;;;;;;;5057908;28;20198;-59
2023/05/02 01:33:49;;;;;;;1.53;1.43;;;;;;;;;;5057501;28;20213;-59
2023/05/02 01:36:17;;;;;;;2.20;1.77;;;;;;;;;;5057703;28;20602;-59
2023/05/02 01:38:45;;;;;;;1.73;1.40;;;;;;;;;;5057876;28;20230;-59
2023/05/02 01:41:13;;;;;;;2.00;1.80;;;;;;;;;;5057609;28;20237;-59
2023/05/02 01:43:59;;;;;;;1.67;1.50;;;;;;;;;;5057375;28;20635;-59
2023/05/02 01:46:31;;;;;;;2.17;1.53;;;;;;;;;;5057634;28;20230;-59
2023/05/02 01:49:03;;;;;;;2.60;1.60;;;;;;;;;;5057678;28;20290;-59
2023/05/02 01:51:36;;;;;;;1.83;1.40;;;;;;;;;;5057646;28;20209;-59
2023/05/02 01:54:05;;;;;;;3.43;1.77;;;;;;;;;;5057460;28;20217;-58
2023/05/02 01:56:37;;;;;;;2.03;1.80;;;;;;;;;;5057347;28;20238;-59
2023/05/02 01:59:12;;;;;;;1.50;1.40;;;;;;;;;;5057426;28;20210;-59
2023/05/02 02:01:43;;;;;;;2.07;1.40;;;;;;;;;;5044135;28;20261;-59
2023/05/02 02:04:13;;;;;;;1.63;1.53;;;;;;;;;;5057546;28;20202;-58
2023/05/02 02:06:46;;;;;;;1.80;1.70;;;;;;;;;;5057623;28;20233;-59
2023/05/02 02:09:17;;;;;;;1.30;1.20;;;;;;;;;;5057415;28;20252;-59
2023/05/02 02:11:53;;;;;;;2.40;1.60;;;;;;;;;;5057678;28;20222;-59
2023/05/02 02:14:27;;;;;;;2.40;1.77;;;;;;;;;;5057434;28;20238;-59
2023/05/02 02:17:01;;;;;;;2.53;1.53;;;;;;;;;;5057378;28;20313;-59
2023/05/02 02:19:30;;;;;;;1.77;1.57;;;;;;;;;;5057078;28;20650;-59
2023/05/02 02:21:58;;;;;;;1.50;1.40;;;;;;;;;;5057405;28;20237;-59
2023/05/02 02:24:26;;;;;;;1.60;1.50;;;;;;;;;;5057591;28;20210;-59
2023/05/02 02:26:54;;;;;;;1.37;1.27;;;;;;;;;;5056982;28;20258;-59
2023/05/02 02:29:22;;;;;;;1.57;1.47;;;;;;;;;;5057311;28;20210;-59
2023/05/02 02:31:52;;;;;;;3.60;1.70;;;;;;;;;;5058693;28;20692;-59
2023/05/02 02:34:20;;;;;;;2.13;1.67;;;;;;;;;;5053453;28;20656;-59
2023/05/02 02:36:50;;;;;;;1.80;1.70;;;;;;;;;;5057088;28;20310;-58
2023/05/02 02:39:25;;;;;;;1.73;1.50;;;;;;;;;;5057302;28;20206;-59
2023/05/02 02:42:01;;;;;;;1.50;1.40;;;;;;;;;;5056981;28;20254;-58
2023/05/02 02:44:35;;;;;;;1.50;1.40;;;;;;;;;;5056750;28;20652;-58
2023/05/02 02:47:09;;;;;;;1.60;1.50;;;;;;;;;;5056982;28;20232;-59
2023/05/02 02:49:41;;;;;;;1.70;1.60;;;;;;;;;;5060424;28;20238;-59
2023/05/02 02:52:11;;;;;;;4.73;2.70;;;;;;;;;;5060800;28;20237;-59
2023/05/02 02:54:41;;;;;;;1.73;1.57;;;;;;;;;;5060548;28;20246;-59
2023/05/02 02:57:15;;;;;;;2.03;1.63;;;;;;;;;;5060642;28;20207;-58
2023/05/02 02:59:47;;;;;;;2.60;1.83;;;;;;;;;;5060437;28;20242;-58
2023/05/02 03:02:18;;;;;;;2.47;1.83;;;;;;;;;;5060413;28;20313;-59
2023/05/02 03:04:47;;;;;;;1.60;1.50;;;;;;;;;;5060520;28;20202;-59
2023/05/02 03:07:15;;;;;;;2.83;1.80;;;;;;;;;;5060616;28;20207;-58
2023/05/02 03:09:46;;;;;;;3.03;1.67;;;;;;;;;;5050074;28;20757;-59
2023/05/02 03:12:17;;;;;;;1.70;1.60;;;;;;;;;;5040041;28;20227;-58
2023/05/02 03:14:48;;;;;;;1.90;1.60;;;;;;;;;;5040394;28;20294;-58
2023/05/02 03:17:20;;;;;;;1.80;1.70;;;;;;;;;;5040088;28;20231;-59
2023/05/02 03:19:56;;;;;;;1.77;1.50;;;;;;;;;;5040130;28;20235;-59
2023/05/02 03:22:24;;;;;;;1.63;1.53;;;;;;;;;;5040306;28;20227;-59
2023/05/02 03:24:52;;;;;;;2.87;1.83;;;;;;;;;;5040326;28;20212;-58
2023/05/02 03:27:23;;;;;;;2.07;1.90;;;;;;;;;;5055277;28;20655;-58
2023/05/02 03:29:53;;;;;;;2.53;1.80;;;;;;;;;;5060007;28;20253;-58
2023/05/02 03:32:23;;;;;;;2.07;1.87;;;;;;;;;;5059859;28;20202;-58
2023/05/02 03:34:57;;;;;;;3.10;2.30;;;;;;;;;;5060137;28;20209;-57
2023/05/02 03:37:28;;;;;;;2.30;2.10;;;;;;;;;;5059812;28;20211;-58
2023/05/02 03:39:59;;;;;;;1.90;1.73;;;;;;;;;;5059772;28;20708;-59
2023/05/02 03:45:55;;;;;;;2.83;2.00;;;;;;;;;;5059480;28;20209;-59
2023/05/02 03:48:26;;;;;;;2.10;1.90;;;;;;;;;;5059600;28;20211;-58
2023/05/02 03:50:54;;;;;;;5.23;2.00;;;;;;;;;;5059442;28;20270;-58
2023/05/02 03:53:22;;;;;;;3.00;2.00;;;;;;;;;;5059829;28;20213;-58
2023/05/02 03:55:52;;;;;;;2.70;2.00;;;;;;;;;;5059553;28;20266;-57
2023/05/02 03:58:24;;;;;;;2.40;2.20;;;;;;;;;;5059158;28;20232;-58
2023/05/02 04:00:54;;;;;;;2.97;2.50;;;;;;;;;;5058174;28;20221;-58
2023/05/02 04:03:27;;;;;;;3.70;1.87;;;;;;;;;;5059329;28;20234;-58
2023/05/02 04:05:56;;;;;;;4.67;1.90;;;;;;;;;;5059360;28;20231;-58
2023/05/02 04:08:25;;;;;;;2.90;1.87;;;;;;;;;;5059133;28;20619;-57
2023/05/02 04:10:52;;;;;;;3.83;1.93;;;;;;;;;;5059356;28;20207;-58
2023/05/02 04:13:23;;;;;;;2.57;2.20;;;;;;;;;;5058838;28;20207;-58
2023/05/02 04:15:51;;;;;;;2.60;2.17;;;;;;;;;;5058868;28;20290;-58
2023/05/02 04:18:19;;;;;;;3.43;2.13;;;;;;;;;;5059148;28;20207;-58
2023/05/02 04:20:51;;;;;;;2.30;2.10;;;;;;;;;;5058750;28;20243;-58
2023/05/02 04:23:22;;;;;;;2.50;2.30;;;;;;;;;;5058779;28;20230;-58
2023/05/02 04:25:53;;;;;;;4.70;2.43;;;;;;;;;;5058556;28;20698;-58
2023/05/02 04:28:22;;;;;;;2.90;2.60;;;;;;;;;;5058819;28;20222;-59
2023/05/02 04:30:50;;;;;;;2.73;2.13;;;;;;;;;;5058679;28;20222;-59
2023/05/02 04:33:18;;;;;;;3.67;2.37;;;;;;;;;;5059517;28;20249;-59
2023/05/02 04:35:51;;;;;;;4.53;2.47;;;;;;;;;;5057520;28;20249;-59
2023/05/02 04:38:34;;;;;;;2.63;2.30;;;;;;;;;;5058495;28;20203;-60
2023/05/02 04:41:05;;;;;;;3.13;2.33;;;;;;;;;;5058742;28;20207;-59
2023/05/02 04:46:58;;;;;;;4.63;2.40;;;;;;;;;;5057734;28;20274;-59
2023/05/02 04:49:25;;;;;;;2.87;2.20;;;;;;;;;;5067895;28;20728;-59
2023/05/02 04:51:55;;;;;;;3.70;2.77;;;;;;;;;;5060659;28;20219;-59
2023/05/02 04:54:23;;;;;;;2.50;2.30;;;;;;;;;;5058508;28;20218;-59
2023/05/02 04:56:51;;;;;;;4.17;2.80;;;;;;;;;;5058414;28;20296;-59
2023/05/02 04:59:19;;;;;;;3.57;2.60;;;;;;;;;;5057841;28;20211;-59
2023/05/02 05:01:47;;;;;;;2.97;2.53;;;;;;;;;;5057874;28;20344;-59
2023/05/02 05:04:15;;;;;;;2.80;2.40;;;;;;;;;;5058004;28;20243;-60
2023/05/02 05:06:43;;;;;;;3.10;2.70;;;;;;;;;;5058191;28;20238;-59
2023/05/02 05:09:12;;;;;;;5.83;2.30;;;;;;;;;;5058288;28;20230;-60
2023/05/02 05:11:41;;;;;;;3.20;2.63;;;;;;;;;;5057948;28;20209;-60
2023/05/02 05:14:09;;;;;;;5.07;2.60;;;;;;;;;;5057620;28;20207;-60
2023/05/02 05:16:37;;;;;;;4.10;2.80;;;;;;;;;;5058256;28;20696;-59
2023/05/02 05:19:05;;;;;;;4.33;2.63;;;;;;;;;;5057527;28;20596;-59
2023/05/02 05:21:33;;;;;;;2.70;2.50;;;;;;;;;;5057882;28;20257;-60
2023/05/02 05:24:01;;;;;;;4.47;3.10;;;;;;;;;;5057753;28;20761;-59
2023/05/02 05:26:30;;;;;;;4.20;3.17;;;;;;;;;;5057771;28;20225;-59
2023/05/02 05:28:58;;;;;;;5.53;2.93;;;;;;;;;;5050641;28;20239;-60
2023/05/02 05:31:26;;;;;;;3.43;3.13;;;;;;;;;;5052807;28;20195;-61
2023/05/02 05:33:55;;;;;;;3.27;2.43;;;;;;;;;;5053689;28;20611;-61
2023/05/02 05:36:23;;;;;;;6.20;3.00;;;;;;;;;;5054557;28;20218;-61
2023/05/02 05:38:51;;;;;;;5.23;2.80;;;;;;;;;;5052552;28;20219;-61
2023/05/02 05:41:19;;;;;;;4.57;2.80;;;;;;;;;;5054496;28;20248;-61
2023/05/02 05:43:48;;;;;;;4.13;3.03;;;;;;;;;;5055396;28;20219;-61
2023/05/02 05:46:16;;;;;;;5.47;3.33;;;;;;;;;;5056019;28;20247;-61
2023/05/02 05:48:44;;;;;;;4.87;2.83;;;;;;;;;;5053568;28;20278;-61
2023/05/02 05:51:12;;;;;;;6.03;2.83;;;;;;;;;;5056872;28;20209;-62
2023/05/02 05:53:40;;;;;;;5.27;3.10;;;;;;;;;;5054868;28;20233;-61
2023/05/02 05:56:08;;;;;;;5.57;2.90;;;;;;;;;;5055962;28;20642;-61
2023/05/02 05:58:36;;;;;;;5.10;2.77;;;;;;;;;;5042612;28;20203;-61
2023/05/02 06:01:06;;;;;;;5.43;3.17;;;;;;;;;;5057551;28;20202;-61
2023/05/02 06:03:34;;;;;;;3.33;2.83;;;;;;;;;;5054182;28;20246;-62
2023/05/02 06:06:02;;;;;;;5.27;3.40;;;;;;;;;;5047407;28;20685;-62
2023/05/02 06:08:30;;;;;;;4.50;3.40;;;;;;;;;;5055628;28;20206;-62
2023/05/02 06:10:58;;;;;;;4.67;2.80;;;;;;;;;;5055843;28;20203;-61
2023/05/02 06:13:26;;;;;;;4.63;3.27;;;;;;;;;;5056697;28;20209;-62
2023/05/02 06:15:54;;;;;;;5.73;3.30;;;;;;;;;;5048478;28;20225;-61
2023/05/02 06:18:24;;;;;;;4.87;3.20;;;;;;;;;;5054956;28;20202;-62
2023/05/02 06:20:52;;;;;;;5.17;2.93;;;;;;;;;;5053108;28;20265;-63
2023/05/02 06:23:19;;;;;;;6.20;3.03;;;;;;;;;;5057760;28;20215;-62
2023/05/02 06:25:47;;;;;;;5.43;3.10;;;;;;;;;;5060731;28;20231;-63
2023/05/02 06:28:15;;;;;;;5.87;3.33;;;;;;;;;;5060910;28;20293;-62
2023/05/02 06:30:43;;;;;;;4.83;3.50;;;;;;;;;;5060665;28;20211;-62
2023/05/02 06:33:11;;;;;;;8.13;3.40;;;;;;;;;;5058229;28;20273;-62
2023/05/02 06:35:41;;;;;;;5.57;3.43;;;;;;;;;;5050172;28;20218;-61
2023/05/02 06:38:09;;;;;;;3.83;2.87;;;;;;;;;;5055773;28;20565;-61
2023/05/02 06:40:43;;;;;;;6.70;3.90;;;;;;;;;;5056421;28;20238;-61
2023/05/02 06:43:12;;;;;;;5.97;3.70;;;;;;;;;;5060068;28;20256;-61
2023/05/02 06:45:40;;;;;;;6.10;3.40;;;;;;;;;;5057939;28;20233;-61
2023/05/02 06:48:08;;;;;;;5.63;3.63;;;;;;;;;;5049668;28;20551;-61
2023/05/02 06:50:36;;;;;;;5.60;3.87;;;;;;;;;;5059391;28;20195;-61
2023/05/02 06:53:06;;;;;;;5.43;3.40;;;;;;;;;;5060167;28;20230;-61
2023/05/02 06:55:33;;;;;;;6.70;3.73;;;;;;;;;;5059752;28;20301;-60
2023/05/02 06:58:01;;;;;;;8.27;3.97;;;;;;;;;;5059318;28;20234;-61
2023/05/02 07:00:29;;;;;;;6.43;3.87;;;;;;;;;;5059779;28;20294;-61
2023/05/02 07:02:58;;;;;;;6.47;3.77;;;;;;;;;;5058523;28;20207;-60
2023/05/02 07:05:25;;;;;;;4.77;3.80;;;;;;;;;;5058568;28;20223;-60
2023/05/02 07:07:53;;;;;;;7.33;4.17;;;;;;;;;;5054569;28;20257;-60
2023/05/02 07:10:23;;;;;;;7.10;4.13;;;;;;;;;;5053727;28;20235;-59
2023/05/02 07:12:51;;;;;;;6.60;5.13;;;;;;;;;;5058453;28;20198;-60
2023/05/02 07:15:19;;;;;;;8.13;5.03;;;;;;;;;;5051046;28;20591;-60
2023/05/02 07:17:48;;;;;;;7.77;4.67;;;;;;;;;;5050852;28;20618;-60
2023/05/02 07:20:16;;;;;;;7.43;4.80;;;;;;;;;;5053902;28;20235;-60
2023/05/02 07:22:44;;;;;;;10.27;4.27;;;;;;;;;;5056748;28;20226;-60
2023/05/02 07:25:12;;;;;;;8.97;5.00;;;;;;;;;;5053736;28;20249;-60
2023/05/02 07:27:41;;;;;;;6.33;5.00;;;;;;;;;;5053369;28;20282;-60
2023/05/02 07:30:09;;;;;;;6.60;5.00;;;;;;;;;;5057087;28;20267;-60
2023/05/02 07:32:37;;;;;;;9.83;4.60;;;;;;;;;;5053841;28;20661;-60
2023/05/02 07:35:06;;;;;;;9.23;5.00;;;;;;;;;;5055045;28;20216;-61
2023/05/02 07:37:35;;;;;;;9.60;5.73;;;;;;;;;;5058464;28;20290;-60
2023/05/02 07:40:03;;;;;;;8.27;4.73;;;;;;;;;;5054634;28;20207;-61
2023/05/02 07:42:31;;;;;;;7.37;4.20;;;;;;;;;;5049387;28;20207;-59
2023/05/02 07:45:01;;;;;;;6.57;4.83;;;;;;;;;;5046950;28;20650;-59
2023/05/02 07:47:29;;;;;;;7.07;5.10;;;;;;;;;;5053868;28;20195;-59
2023/05/02 07:49:57;;;;;;;6.47;4.70;;;;;;;;;;5056090;28;20215;-59
2023/05/02 07:52:26;;;;;;;8.33;5.77;;;;;;;;;;5055367;28;20202;-59
2023/05/02 07:54:54;;;;;;;7.43;5.23;;;;;;;;;;5053605;28;20227;-59
2023/05/02 07:57:22;;;;;;;5.67;4.90;;;;;;;;;;5039289;28;20661;-60
2023/05/02 07:59:50;;;;;;;6.23;5.00;;;;;;;;;;5054752;28;20207;-60
2023/05/02 08:02:22;;;;;;;8.77;5.23;;;;;;;;;;5058851;28;20203;-60
2023/05/02 08:04:50;;;;;;;8.47;5.47;;;;;;;;;;5039676;28;20224;-60
2023/05/02 08:07:18;;;;;;;7.93;5.57;;;;;;;;;;5040770;28;20200;-60
2023/05/02 08:09:46;;;;;;;9.10;5.83;;;;;;;;;;5051260;28;20617;-59
2023/05/02 08:12:14;;;;;;;11.97;5.77;;;;;;;;;;5053818;28;20203;-60
2023/05/02 08:14:42;;;;;;;8.33;5.30;;;;;;;;;;5050873;28;20227;-61
2023/05/02 08:17:10;;;;;;;10.07;6.80;;;;;;;;;;5055017;28;20591;-60
2023/05/02 08:19:40;;;;;;;8.90;5.93;;;;;;;;;;5052388;28;20231;-60
2023/05/02 08:22:08;;;;;;;9.80;6.07;;;;;;;;;;5055341;28;20234;-60
2023/05/02 08:24:36;;;;;;;7.43;5.93;;;;;;;;;;5055347;28;20277;-59
2023/05/02 08:27:04;;;;;;;11.53;6.17;;;;;;;;;;5055073;28;20231;-59
2023/05/02 08:29:32;;;;;;;9.93;6.70;;;;;;;;;;5050279;28;20286;-60
2023/05/02 08:32:00;;;;;;;8.63;6.80;;;;;;;;;;5055514;28;20200;-59
2023/05/02 08:34:28;;;;;;;12.90;6.20;;;;;;;;;;5055286;28;20198;-59
2023/05/02 08:36:57;;;;;;;7.40;6.00;;;;;;;;;;5052244;28;20211;-60
2023/05/02 08:39:25;;;;;;;9.50;6.40;;;;;;;;;;5052304;28;20207;-60
2023/05/02 08:41:53;;;;;;;7.47;5.93;;;;;;;;;;5054952;28;20713;-60
2023/05/02 08:44:21;;;;;;;8.77;6.53;;;;;;;;;;5057152;28;20237;-60
2023/05/02 08:46:50;;;;;;;9.27;6.33;;;;;;;;;;5055201;28;20229;-60
2023/05/02 08:49:18;;;;;;;9.63;7.07;;;;;;;;;;5055935;28;20552;-60
2023/05/02 08:51:46;;;;;;;9.40;7.50;;;;;;;;;;5049658;28;20200;-60
2023/05/02 08:54:17;;;;;;;9.13;6.63;;;;;;;;;;5054550;28;20677;-60
2023/05/02 08:56:46;;;;;;;10.13;6.77;;;;;;;;;;5054124;28;20222;-61
2023/05/02 08:59:14;;;;;;;10.77;7.07;;;;;;;;;;5054426;28;20203;-60
2023/05/02 09:01:44;;;;;;;8.67;7.13;;;;;;;;;;5053350;28;20728;-60
2023/05/02 09:04:13;;;;;;;10.47;7.77;;;;;;;;;;5051504;28;20237;-60
2023/05/02 09:06:41;;;;;;;9.93;6.93;;;;;;;;;;5044044;28;20588;-60
2023/05/02 09:09:09;;;;;;;9.83;7.97;;;;;;;;;;5048712;28;20248;-59
2023/05/02 09:11:39;;;;;;;11.53;7.07;;;;;;;;;;5052449;28;20217;-62
2023/05/02 09:14:14;;;;;;;12.10;7.83;;;;;;;;;;5053801;28;20225;-61
2023/05/02 09:16:42;;;;;;;8.10;7.23;;;;;;;;;;5054243;28;20214;-58
2023/05/02 09:19:10;;;;;;;9.70;7.37;;;;;;;;;;5039622;28;20246;-60
2023/05/02 09:21:40;;;;;;;8.73;7.13;;;;;;;;;;5038129;28;20210;-60
2023/05/02 09:24:15;;;;;;;9.33;7.47;;;;;;;;;;5038022;28;20299;-61
2023/05/02 09:26:56;;;;;;;10.13;7.40;;;;;;;;;;5048317;28;20309;-61
2023/05/02 09:29:24;;;;;;;10.63;7.90;;;;;;;;;;5045392;28;20213;-61
2023/05/02 09:31:52;;;;;;;11.37;7.77;;;;;;;;;;5056680;28;20290;-60
2023/05/02 09:34:23;;;;;;;10.67;7.63;;;;;;;;;;5037997;28;20257;-61
2023/05/02 09:36:52;;;;;;;9.23;8.27;;;;;;;;;;5037745;28;20231;-61
2023/05/02 09:39:22;;;;;;;10.90;7.07;;;;;;;;;;5037802;28;20235;-60
2023/05/02 09:41:54;;;;;;;10.50;6.73;;;;;;;;;;5037482;28;20203;-61
2023/05/02 09:44:23;;;;;;;10.47;7.00;;;;;;;;;;5037869;28;20235;-61
2023/05/02 09:46:52;;;;;;;10.57;7.17;;;;;;;;;;5045074;28;20307;-59
2023/05/02 09:49:20;;;;;;;8.77;6.97;;;;;;;;;;5056405;28;20202;-61
2023/05/02 09:51:48;;;;;;;8.63;6.73;;;;;;;;;;5057471;28;20298;-61
2023/05/02 09:54:31;;;;;;;9.30;7.73;;;;;;;;;;5057819;28;20252;-58
2023/05/02 09:57:00;;;;;;;8.73;7.23;;;;;;;;;;5057651;28;20230;-61
2023/05/02 09:59:29;;;;;;;7.93;7.10;;;;;;;;;;5062677;28;20566;-62
2023/05/02 10:01:57;;;;;;;9.23;7.20;;;;;;;;;;5062267;28;20222;-61
2023/05/02 10:04:26;;;;;;;10.67;6.87;;;;;;;;;;5062154;28;20289;-61
2023/05/02 10:06:55;;;;;;;8.57;6.57;;;;;;;;;;5061350;28;20237;-61
2023/05/02 10:09:23;;;;;;;7.63;6.60;;;;;;;;;;5061274;28;20297;-63
2023/05/02 10:11:54;;;;;;;10.40;6.37;;;;;;;;;;5055836;28;20209;-61
2023/05/02 10:14:24;;;;;;;7.63;6.37;;;;;;;;;;5054419;28;20222;-61
2023/05/02 10:16:59;;;;;;;10.90;7.47;;;;;;;;;;5057495;28;20212;-61
2023/05/02 10:19:30;;;;;;;7.53;6.10;;;;;;;;;;5059214;28;20238;-61
2023/05/02 10:21:58;;;;;;;7.53;6.30;;;;;;;;;;5054963;28;20289;-61
2023/05/02 10:24:26;;;;;;;7.03;6.13;;;;;;;;;;5057923;28;20257;-60
2023/05/02 10:26:54;;;;;;;6.87;5.93;;;;;;;;;;5051924;28;20262;-61
2023/05/02 10:29:24;;;;;;;7.60;6.47;;;;;;;;;;5057941;28;20666;-61
2023/05/02 10:31:53;;;;;;;7.87;5.80;;;;;;;;;;5056100;28;20239;-61
2023/05/02 10:34:21;;;;;;;8.30;6.33;;;;;;;;;;5055540;28;20534;-61
2023/05/02 10:36:49;;;;;;;6.67;5.90;;;;;;;;;;5054858;28;20239;-61
2023/05/02 10:39:18;;;;;;;7.70;6.23;;;;;;;;;;5052815;28;20226;-61
2023/05/02 10:41:46;;;;;;;7.63;6.33;;;;;;;;;;5060266;28;20567;-60
2023/05/02 10:44:14;;;;;;;10.23;6.43;;;;;;;;;;5040821;28;20211;-61
2023/05/02 10:46:44;;;;;;;11.27;5.63;;;;;;;;;;5040207;28;20231;-61
2023/05/02 10:49:13;;;;;;;8.73;5.87;;;;;;;;;;5040664;28;20340;-61
2023/05/02 10:51:42;;;;;;;6.57;5.80;;;;;;;;;;5040529;28;20267;-61
2023/05/02 10:54:23;;;;;;;9.47;6.37;;;;;;;;;;5040107;28;20718;-61
2023/05/02 10:57:07;;;;;;;6.73;5.70;;;;;;;;;;5054333;28;20241;-61
2023/05/02 10:59:36;;;;;;;6.97;5.93;;;;;;;;;;5060094;28;20550;-61
2023/05/02 11:02:26;;;;;;;6.47;5.23;;;;;;;;;;5060303;28;20285;-61
2023/05/02 11:05:02;;;;;;;9.60;5.73;;;;;;;;;;5053783;28;20199;-61
2023/05/02 11:07:32;;;;;;;9.83;6.07;;;;;;;;;;5056976;28;20250;-61
2023/05/02 11:10:19;;;;;;;6.60;5.57;;;;;;;;;;5056425;28;20545;-61
2023/05/02 11:12:47;;;;;;;7.73;5.07;;;;;;;;;;5059174;28;20577;-61
2023/05/02 11:15:35;;;;;;;6.60;4.90;;;;;;;;;;5052114;28;20251;-61
2023/05/02 11:18:06;;;;;;;6.30;5.70;;;;;;;;;;5053615;28;20195;-61
2023/05/02 11:20:34;;;;;;;7.23;6.13;;;;;;;;;;5056483;28;20234;-61
2023/05/02 11:23:24;;;;;;;9.27;5.67;;;;;;;;;;5056506;28;20207;-61
2023/05/02 11:25:54;;;;;;;7.77;5.70;;;;;;;;;;5059554;28;20249;-61
2023/05/02 11:28:42;;;;;;;6.27;5.53;;;;;;;;;;5059619;28;20223;-60
2023/05/02 11:31:30;;;;;;;6.33;5.37;;;;;;;;;;5056062;28;20282;-60
2023/05/02 11:33:59;;;;;;;7.97;5.30;;;;;;;;;;5054679;28;20198;-59
2023/05/02 11:36:29;;;;;;;7.63;5.73;;;;;;;;;;5053291;28;20748;-60
2023/05/02 11:38:57;;;;;;;7.90;5.67;;;;;;;;;;5051650;28;20256;-61
2023/05/02 11:41:38;;;;;;;6.80;5.50;;;;;;;;;;5054391;28;20249;-61
2023/05/02 11:44:06;;;;;;;5.80;5.20;;;;;;;;;;5052603;28;20196;-61
2023/05/02 11:46:36;;;;;;;8.50;6.30;;;;;;;;;;5056361;28;20769;-61
2023/05/02 11:49:06;;;;;;;10.57;5.50;;;;;;;;;;5053423;28;20211;-61
2023/05/02 11:51:36;;;;;;;7.33;6.07;;;;;;;;;;5039476;28;20299;-61
2023/05/02 11:54:06;;;;;;;7.67;6.77;;;;;;;;;;5045879;28;20617;-61
2023/05/02 11:56:34;;;;;;;8.27;6.43;;;;;;;;;;5059318;28;20237;-61
2023/05/02 11:59:03;;;;;;;7.93;6.63;;;;;;;;;;5058914;28;20241;-61
2023/05/02 12:01:31;;;;;;;6.07;5.47;;;;;;;;;;5058951;28;20195;-61
2023/05/02 12:04:02;;;;;;;6.40;5.80;;;;;;;;;;5059214;28;20207;-61
2023/05/02 12:06:31;;;;;;;10.30;6.27;;;;;;;;;;5058863;28;20244;-61
2023/05/02 12:09:09;;;;;;;7.97;5.50;;;;;;;;;;5058805;28;20215;-61
2023/05/02 12:11:37;;;;;;;9.40;6.53;;;;;;;;;;5059077;28;20229;-61
2023/05/02 12:14:05;;;;;;;6.77;5.70;;;;;;;;;;5058401;28;20207;-62
2023/05/02 12:16:33;;;;;;;6.17;5.33;;;;;;;;;;5058570;28;20223;-62
2023/05/02 12:19:03;;;;;;;8.23;5.13;;;;;;;;;;5058488;28;20261;-62
2023/05/02 12:21:32;;;;;;;9.20;4.97;;;;;;;;;;5057626;28;20206;-62
2023/05/02 12:24:01;;;;;;;6.13;5.50;;;;;;;;;;5052717;28;20630;-61
2023/05/02 12:26:31;;;;;;;11.20;5.60;;;;;;;;;;5057931;28;20839;-62
2023/05/02 12:29:01;;;;;;;5.53;5.03;;;;;;;;;;5052472;28;20223;-61
2023/05/02 12:31:30;;;;;;;7.50;5.80;;;;;;;;;;5058713;28;20206;-61
2023/05/02 12:33:59;;;;;;;6.13;4.83;;;;;;;;;;5058472;28;20290;-61
2023/05/02 12:36:28;;;;;;;6.10;4.73;;;;;;;;;;5058432;28;20297;-61
2023/05/02 12:38:59;;;;;;;9.60;6.07;;;;;;;;;;5058750;28;20206;-61
2023/05/02 12:41:33;;;;;;;7.97;6.30;;;;;;;;;;5058499;28;20202;-61
2023/05/02 12:44:01;;;;;;;8.93;6.27;;;;;;;;;;5058467;28;20297;-61
2023/05/02 12:46:30;;;;;;;10.03;5.77;;;;;;;;;;5047731;28;20253;-61
2023/05/02 12:49:01;;;;;;;7.97;6.10;;;;;;;;;;5049599;28;20230;-61
2023/05/02 12:51:31;;;;;;;8.20;6.43;;;;;;;;;;5050255;28;20658;-61
2023/05/02 12:54:01;;;;;;;7.37;5.93;;;;;;;;;;5051808;28;20621;-61
2023/05/02 12:56:31;;;;;;;6.57;5.87;;;;;;;;;;5058295;28;20276;-61
2023/05/02 12:59:03;;;;;;;7.40;5.40;;;;;;;;;;5058281;28;20203;-61
2023/05/02 13:01:33;;;;;;;8.47;5.97;;;;;;;;;;5063489;28;20238;-61
2023/05/02 13:04:01;;;;;;;6.67;5.97;;;;;;;;;;5047952;28;20585;-61
2023/05/02 13:06:30;;;;;;;6.10;5.47;;;;;;;;;;5038336;28;20232;-61
2023/05/02 13:08:58;;;;;;;6.83;6.13;;;;;;;;;;5037933;28;20637;-61
2023/05/02 13:11:28;;;;;;;7.77;5.40;;;;;;;;;;5038329;28;20222;-61
2023/05/02 13:13:56;;;;;;;5.50;5.00;;;;;;;;;;5037925;28;20675;-61
2023/05/02 13:16:24;;;;;;;6.17;5.67;;;;;;;;;;5038133;28;20258;-61
2023/05/02 13:18:53;;;;;;;9.37;5.77;;;;;;;;;;5051065;28;20195;-62
2023/05/02 13:21:21;;;;;;;7.97;4.83;;;;;;;;;;5056421;28;20211;-61
2023/05/02 13:23:54;;;;;;;7.17;5.27;;;;;;;;;;5052225;28;20225;-61
2023/05/02 13:26:22;;;;;;;5.20;4.70;;;;;;;;;;5054934;28;20223;-61
2023/05/02 13:28:51;;;;;;;5.70;4.90;;;;;;;;;;5049319;28;20277;-61
2023/05/02 13:31:21;;;;;;;8.10;5.23;;;;;;;;;;5037828;28;20219;-61
2023/05/02 13:33:49;;;;;;;5.20;4.60;;;;;;;;;;5037891;28;20211;-62
2023/05/02 13:36:17;;;;;;;5.70;4.23;;;;;;;;;;5037719;28;20224;-61
2023/05/02 13:38:45;;;;;;;6.03;4.93;;;;;;;;;;5037562;28;20661;-62
2023/05/02 13:41:13;;;;;;;7.27;4.73;;;;;;;;;;5037798;28;20204;-62
2023/05/02 13:43:41;;;;;;;7.27;4.77;;;;;;;;;;5037333;28;20215;-61
2023/05/02 13:46:10;;;;;;;4.87;4.40;;;;;;;;;;5037387;28;20272;-60
2023/05/02 13:48:38;;;;;;;6.87;4.43;;;;;;;;;;5037533;28;20238;-60
2023/05/02 13:51:06;;;;;;;4.20;3.80;;;;;;;;;;5037384;28;20245;-60
2023/05/02 13:53:34;;;;;;;5.47;4.13;;;;;;;;;;5037459;28;20286;-62
2023/05/02 13:56:02;;;;;;;7.10;3.87;;;;;;;;;;5037276;28;20238;-62
2023/05/02 13:58:30;;;;;;;4.93;3.60;;;;;;;;;;5041935;28;20207;-61
2023/05/02 14:00:58;;;;;;;5.73;3.67;;;;;;;;;;5057325;28;20211;-62
2023/05/02 14:03:27;;;;;;;4.17;3.63;;;;;;;;;;5056662;28;20669;-61
2023/05/02 14:05:55;;;;;;;5.07;3.67;;;;;;;;;;5057117;28;20265;-62
2023/05/02 14:08:23;;;;;;;4.43;4.03;;;;;;;;;;5055082;28;20687;-62
2023/05/02 14:10:51;;;;;;;5.63;3.93;;;;;;;;;;5053306;28;20290;-60
2023/05/02 14:13:19;;;;;;;4.87;3.90;;;;;;;;;;5056714;28;20211;-60
2023/05/02 14:15:47;;;;;;;5.83;3.10;;;;;;;;;;5056902;28;20843;-62
2023/05/02 14:18:15;;;;;;;4.87;4.00;;;;;;;;;;5056903;28;20207;-63
2023/05/02 14:20:45;;;;;;;5.50;4.27;;;;;;;;;;5056855;28;20239;-62
2023/05/02 14:23:13;;;;;;;3.80;3.40;;;;;;;;;;5057161;28;20203;-60
2023/05/02 14:25:41;;;;;;;4.83;3.47;;;;;;;;;;5056886;28;20254;-60
2023/05/02 14:28:08;;;;;;;4.37;3.97;;;;;;;;;;5056882;28;20233;-61
2023/05/02 14:30:37;;;;;;;3.53;3.23;;;;;;;;;;5056897;28;20211;-61
2023/05/02 14:33:04;;;;;;;4.13;3.30;;;;;;;;;;5057040;28;20207;-61
2023/05/02 14:35:32;;;;;;;3.60;3.30;;;;;;;;;;5056993;28;20280;-61
2023/05/02 14:38:02;;;;;;;3.80;3.37;;;;;;;;;;5057126;28;20207;-60
2023/05/02 14:40:30;;;;;;;4.17;3.70;;;;;;;;;;5056849;28;20218;-62
2023/05/02 14:42:58;;;;;;;4.37;3.97;;;;;;;;;;5056605;28;20666;-60
2023/05/02 14:45:26;;;;;;;3.67;3.37;;;;;;;;;;5059739;28;20226;-60
2023/05/02 14:47:54;;;;;;;4.23;3.53;;;;;;;;;;5060257;28;20683;-60
2023/05/02 14:50:22;;;;;;;4.53;3.50;;;;;;;;;;5060409;28;20217;-62
2023/05/02 14:52:53;;;;;;;6.37;3.30;;;;;;;;;;5060438;28;20245;-60
2023/05/02 14:55:22;;;;;;;3.50;3.00;;;;;;;;;;5060267;28;20231;-60
2023/05/02 14:57:50;;;;;;;6.13;3.43;;;;;;;;;;5060118;28;20210;-60
2023/05/02 15:00:19;;;;;;;4.17;2.97;;;;;;;;;;5058503;28;20277;-60
2023/05/02 15:02:48;;;;;;;4.57;3.10;;;;;;;;;;5058224;28;20563;-60
2023/05/02 15:05:20;;;;;;;4.30;3.47;;;;;;;;;;5054396;28;20227;-60